sensor_id;sensor_type;location;lat;lon;timestamp;temperature;humidity
30300;DHT22;17110;52.602;12.998;2023-04-24T00:02:19;8.30;99.90
30300;DHT22;17110;52.602;12.998;2023-04-24T00:04:44;8.30;99.90
30300;DHT22;17110;52.602;12.998;2023-04-24T00:07:11;8.30;99.90
30300;DHT22;17110;52.602;12.998;2023-04-24T00:09:38;8.30;99.90
30300;DHT22;17110;52.602;12.998;2023-04-24T00:12:04;8.20;99.90
30300;DHT22;17110;52.602;12.998;2023-04-24T00:14:31;8.30;99.90
30300;DHT22;17110;52.602;12.998;2023-04-24T00:16:56;8.20;99.90
30300;DHT22;17110;52.602;12.998;2023-04-24T00:19:22;8.20;99.90
30300;DHT22;17110;52.602;12.998;2023-04-24T00:21:48;8.20;99.90
30300;DHT22;17110;52.602;12.998;2023-04-24T00:24:17;8.20;99.90
30300;DHT22;17110;52.602;12.998;2023-04-24T00:26:43;8.20;99.90
30300;DHT22;17110;52.602;12.998;2023-04-24T00:29:11;8.30;99.90
30300;DHT22;17110;52.602;12.998;2023-04-24T00:31:37;8.30;99.90
30300;DHT22;17110;52.602;12.998;2023-04-24T00:34:04;8.40;99.90
30300;DHT22;17110;52.602;12.998;2023-04-24T00:36:30;8.40;99.90
30300;DHT22;17110;52.602;12.998;2023-04-24T00:38:57;8.50;99.90
30300;DHT22;17110;52.602;12.998;2023-04-24T00:41:25;8.60;99.90
30300;DHT22;17110;52.602;12.998;2023-04-24T00:43:52;8.60;99.90
30300;DHT22;17110;52.602;12.998;2023-04-24T00:46:19;8.60;99.90
30300;DHT22;17110;52.602;12.998;2023-04-24T00:48:48;8.60;99.90
30300;DHT22;17110;52.602;12.998;2023-04-24T00:51:13;8.80;99.90
30300;DHT22;17110;52.602;12.998;2023-04-24T00:53:40;9.00;99.90
30300;DHT22;17110;52.602;12.998;2023-04-24T00:56:05;9.30;99.90
30300;DHT22;17110;52.602;12.998;2023-04-24T00:58:31;9.50;99.90
30300;DHT22;17110;52.602;12.998;2023-04-24T01:00:57;9.60;99.90
30300;DHT22;17110;52.602;12.998;2023-04-24T01:03:28;9.70;99.90
30300;DHT22;17110;52.602;12.998;2023-04-24T01:05:55;9.80;99.90
30300;DHT22;17110;52.602;12.998;2023-04-24T01:08:24;9.90;99.90
30300;DHT22;17110;52.602;12.998;2023-04-24T01:10:52;10.00;99.90
30300;DHT22;17110;52.602;12.998;2023-04-24T01:13:18;10.00;99.90
30300;DHT22;17110;52.602;12.998;2023-04-24T01:15:45;10.10;99.90
30300;DHT22;17110;52.602;12.998;2023-04-24T01:18:11;10.10;99.90
30300;DHT22;17110;52.602;12.998;2023-04-24T01:20:41;10.20;99.90
30300;DHT22;17110;52.602;12.998;2023-04-24T01:23:08;10.20;99.90
30300;DHT22;17110;52.602;12.998;2023-04-24T01:25:34;10.20;99.90
30300;DHT22;17110;52.602;12.998;2023-04-24T01:28:00;10.20;99.90
30300;DHT22;17110;52.602;12.998;2023-04-24T01:30:26;10.30;99.90
30300;DHT22;17110;52.602;12.998;2023-04-24T01:32:52;10.30;99.90
30300;DHT22;17110;52.602;12.998;2023-04-24T01:35:19;10.40;99.90
30300;DHT22;17110;52.602;12.998;2023-04-24T01:37:45;10.40;99.90
30300;DHT22;17110;52.602;12.998;2023-04-24T01:40:11;10.50;99.90
30300;DHT22;17110;52.602;12.998;2023-04-24T01:42:41;10.50;99.90
30300;DHT22;17110;52.602;12.998;2023-04-24T01:45:10;10.60;99.90
30300;DHT22;17110;52.602;12.998;2023-04-24T01:47:36;10.60;99.90
30300;DHT22;17110;52.602;12.998;2023-04-24T01:50:03;10.50;99.90
30300;DHT22;17110;52.602;12.998;2023-04-24T01:52:28;10.50;99.90
30300;DHT22;17110;52.602;12.998;2023-04-24T01:54:56;10.40;99.90
30300;DHT22;17110;52.602;12.998;2023-04-24T01:57:32;10.40;99.90
30300;DHT22;17110;52.602;12.998;2023-04-24T01:59:59;10.30;99.90
30300;DHT22;17110;52.602;12.998;2023-04-24T02:02:25;10.30;99.90
30300;DHT22;17110;52.602;12.998;2023-04-24T02:04:53;10.40;99.90
30300;DHT22;17110;52.602;12.998;2023-04-24T02:07:19;10.40;99.90
30300;DHT22;17110;52.602;12.998;2023-04-24T02:09:48;10.40;99.90
30300;DHT22;17110;52.602;12.998;2023-04-24T02:12:22;10.40;99.90
30300;DHT22;17110;52.602;12.998;2023-04-24T02:14:50;10.30;99.90
30300;DHT22;17110;52.602;12.998;2023-04-24T02:17:25;10.30;99.90
30300;DHT22;17110;52.602;12.998;2023-04-24T02:20:05;10.20;99.90
30300;DHT22;17110;52.602;12.998;2023-04-24T02:22:33;10.20;99.90
30300;DHT22;17110;52.602;12.998;2023-04-24T02:24:59;10.20;99.90
30300;DHT22;17110;52.602;12.998;2023-04-24T02:27:25;10.20;99.90
30300;DHT22;17110;52.602;12.998;2023-04-24T02:29:51;10.20;99.90
30300;DHT22;17110;52.602;12.998;2023-04-24T02:32:17;10.20;99.90
30300;DHT22;17110;52.602;12.998;2023-04-24T02:34:50;10.20;99.90
30300;DHT22;17110;52.602;12.998;2023-04-24T02:40:08;10.10;99.90
30300;DHT22;17110;52.602;12.998;2023-04-24T02:42:34;10.10;99.90
30300;DHT22;17110;52.602;12.998;2023-04-24T02:45:03;10.10;99.90
30300;DHT22;17110;52.602;12.998;2023-04-24T02:50:46;10.20;99.90
30300;DHT22;17110;52.602;12.998;2023-04-24T02:53:12;10.20;99.90
30300;DHT22;17110;52.602;12.998;2023-04-24T02:55:38;10.20;99.90
30300;DHT22;17110;52.602;12.998;2023-04-24T02:58:03;10.20;99.90
30300;DHT22;17110;52.602;12.998;2023-04-24T03:00:29;10.20;99.90
30300;DHT22;17110;52.602;12.998;2023-04-24T03:02:55;10.20;99.90
30300;DHT22;17110;52.602;12.998;2023-04-24T03:05:21;10.10;99.90
30300;DHT22;17110;52.602;12.998;2023-04-24T03:07:50;10.20;99.90
30300;DHT22;17110;52.602;12.998;2023-04-24T03:10:18;10.20;99.90
30300;DHT22;17110;52.602;12.998;2023-04-24T03:12:43;10.20;99.90
30300;DHT22;17110;52.602;12.998;2023-04-24T03:15:09;10.20;99.90
30300;DHT22;17110;52.602;12.998;2023-04-24T03:17:35;10.20;99.90
30300;DHT22;17110;52.602;12.998;2023-04-24T03:20:02;10.30;99.90
30300;DHT22;17110;52.602;12.998;2023-04-24T03:22:39;10.30;99.90
30300;DHT22;17110;52.602;12.998;2023-04-24T03:25:14;10.40;99.90
30300;DHT22;17110;52.602;12.998;2023-04-24T03:27:54;10.40;99.90
30300;DHT22;17110;52.602;12.998;2023-04-24T03:30:23;10.50;99.90
30300;DHT22;17110;52.602;12.998;2023-04-24T03:32:51;10.60;99.90
30300;DHT22;17110;52.602;12.998;2023-04-24T03:35:23;10.60;99.90
30300;DHT22;17110;52.602;12.998;2023-04-24T03:37:51;10.80;99.90
30300;DHT22;17110;52.602;12.998;2023-04-24T03:40:19;10.70;99.90
30300;DHT22;17110;52.602;12.998;2023-04-24T03:42:48;10.80;99.90
30300;DHT22;17110;52.602;12.998;2023-04-24T03:45:20;10.80;99.90
30300;DHT22;17110;52.602;12.998;2023-04-24T03:48:03;10.80;99.90
30300;DHT22;17110;52.602;12.998;2023-04-24T03:53:43;10.90;99.90
30300;DHT22;17110;52.602;12.998;2023-04-24T03:56:08;10.80;99.90
30300;DHT22;17110;52.602;12.998;2023-04-24T03:58:34;10.80;99.90
30300;DHT22;17110;52.602;12.998;2023-04-24T04:01:00;10.80;99.90
30300;DHT22;17110;52.602;12.998;2023-04-24T04:03:26;10.90;99.90
30300;DHT22;17110;52.602;12.998;2023-04-24T04:05:52;10.90;99.90
30300;DHT22;17110;52.602;12.998;2023-04-24T04:08:18;10.90;99.90
30300;DHT22;17110;52.602;12.998;2023-04-24T04:10:44;10.80;99.90
30300;DHT22;17110;52.602;12.998;2023-04-24T04:13:09;10.80;99.90
30300;DHT22;17110;52.602;12.998;2023-04-24T04:15:37;10.80;99.90
30300;DHT22;17110;52.602;12.998;2023-04-24T04:18:03;10.80;99.90
30300;DHT22;17110;52.602;12.998;2023-04-24T04:20:29;10.90;99.90
30300;DHT22;17110;52.602;12.998;2023-04-24T04:22:55;10.80;99.90
30300;DHT22;17110;52.602;12.998;2023-04-24T04:25:20;10.90;99.90
30300;DHT22;17110;52.602;12.998;2023-04-24T04:27:46;10.90;99.90
30300;DHT22;17110;52.602;12.998;2023-04-24T04:30:14;10.90;99.90
30300;DHT22;17110;52.602;12.998;2023-04-24T04:32:40;10.90;99.90
30300;DHT22;17110;52.602;12.998;2023-04-24T04:35:06;10.90;99.90
30300;DHT22;17110;52.602;12.998;2023-04-24T04:37:32;11.00;99.90
30300;DHT22;17110;52.602;12.998;2023-04-24T04:39:59;11.00;99.90
30300;DHT22;17110;52.602;12.998;2023-04-24T04:42:25;11.20;99.90
30300;DHT22;17110;52.602;12.998;2023-04-24T04:44:52;11.30;99.90
30300;DHT22;17110;52.602;12.998;2023-04-24T04:47:20;11.50;99.90
30300;DHT22;17110;52.602;12.998;2023-04-24T04:49:48;11.70;99.90
30300;DHT22;17110;52.602;12.998;2023-04-24T04:52:13;12.10;99.90
30300;DHT22;17110;52.602;12.998;2023-04-24T04:54:39;12.60;99.90
30300;DHT22;17110;52.602;12.998;2023-04-24T04:57:05;13.60;99.90
30300;DHT22;17110;52.602;12.998;2023-04-24T04:59:31;14.80;99.90
30300;DHT22;17110;52.602;12.998;2023-04-24T05:01:57;16.20;99.90
30300;DHT22;17110;52.602;12.998;2023-04-24T05:04:22;16.70;99.90
30300;DHT22;17110;52.602;12.998;2023-04-24T05:06:48;17.20;99.90
30300;DHT22;17110;52.602;12.998;2023-04-24T05:09:18;16.40;99.90
30300;DHT22;17110;52.602;12.998;2023-04-24T05:11:44;16.50;99.90
30300;DHT22;17110;52.602;12.998;2023-04-24T05:14:10;16.90;99.90
30300;DHT22;17110;52.602;12.998;2023-04-24T05:16:38;17.70;99.90
30300;DHT22;17110;52.602;12.998;2023-04-24T05:19:04;18.00;99.90
30300;DHT22;17110;52.602;12.998;2023-04-24T05:21:29;17.50;99.90
30300;DHT22;17110;52.602;12.998;2023-04-24T05:23:56;16.60;99.90
30300;DHT22;17110;52.602;12.998;2023-04-24T05:26:21;15.70;99.90
30300;DHT22;17110;52.602;12.998;2023-04-24T05:28:48;15.40;99.90
30300;DHT22;17110;52.602;12.998;2023-04-24T05:31:14;15.50;99.90
30300;DHT22;17110;52.602;12.998;2023-04-24T05:33:39;16.00;99.90
30300;DHT22;17110;52.602;12.998;2023-04-24T05:36:06;16.10;99.90
30300;DHT22;17110;52.602;12.998;2023-04-24T05:38:32;16.10;99.90
30300;DHT22;17110;52.602;12.998;2023-04-24T05:41:17;16.10;99.90
30300;DHT22;17110;52.602;12.998;2023-04-24T05:43:48;16.20;99.90
30300;DHT22;17110;52.602;12.998;2023-04-24T05:54:36;15.10;99.90
30300;DHT22;17110;52.602;12.998;2023-04-24T06:08:44;15.40;99.90
30300;DHT22;17110;52.602;12.998;2023-04-24T06:11:13;15.50;99.90
30300;DHT22;17110;52.602;12.998;2023-04-24T06:13:39;15.60;99.90
30300;DHT22;17110;52.602;12.998;2023-04-24T06:16:05;16.00;99.90
30300;DHT22;17110;52.602;12.998;2023-04-24T06:18:30;16.50;99.90
30300;DHT22;17110;52.602;12.998;2023-04-24T06:20:56;17.10;99.90
30300;DHT22;17110;52.602;12.998;2023-04-24T06:23:22;17.70;99.90
30300;DHT22;17110;52.602;12.998;2023-04-24T06:25:47;17.80;99.90
30300;DHT22;17110;52.602;12.998;2023-04-24T06:28:13;18.30;99.90
30300;DHT22;17110;52.602;12.998;2023-04-24T06:30:38;18.80;99.90
30300;DHT22;17110;52.602;12.998;2023-04-24T06:33:04;19.20;99.90
30300;DHT22;17110;52.602;12.998;2023-04-24T06:35:30;19.70;99.90
30300;DHT22;17110;52.602;12.998;2023-04-24T06:38:19;20.70;99.90
30300;DHT22;17110;52.602;12.998;2023-04-24T06:51:49;22.30;99.90
30300;DHT22;17110;52.602;12.998;2023-04-24T06:54:15;22.50;99.90
30300;DHT22;17110;52.602;12.998;2023-04-24T06:56:40;21.70;99.90
30300;DHT22;17110;52.602;12.998;2023-04-24T06:59:06;20.30;99.90
30300;DHT22;17110;52.602;12.998;2023-04-24T07:01:32;21.10;99.90
30300;DHT22;17110;52.602;12.998;2023-04-24T07:03:57;22.00;99.90
30300;DHT22;17110;52.602;12.998;2023-04-24T07:06:23;23.00;99.90
30300;DHT22;17110;52.602;12.998;2023-04-24T07:08:49;24.80;99.90
30300;DHT22;17110;52.602;12.998;2023-04-24T07:11:15;25.40;97.80
30300;DHT22;17110;52.602;12.998;2023-04-24T07:13:41;23.60;99.90
30300;DHT22;17110;52.602;12.998;2023-04-24T07:16:09;22.00;99.90
30300;DHT22;17110;52.602;12.998;2023-04-24T07:18:35;22.60;99.90
30300;DHT22;17110;52.602;12.998;2023-04-24T07:21:02;22.90;99.90
30300;DHT22;17110;52.602;12.998;2023-04-24T07:23:27;23.30;99.90
30300;DHT22;17110;52.602;12.998;2023-04-24T07:25:53;25.40;97.00
30300;DHT22;17110;52.602;12.998;2023-04-24T07:28:19;26.30;96.30
30300;DHT22;17110;52.602;12.998;2023-04-24T07:30:44;27.10;94.50
30300;DHT22;17110;52.602;12.998;2023-04-24T07:33:10;26.90;93.70
30300;DHT22;17110;52.602;12.998;2023-04-24T07:35:38;27.00;93.20
30300;DHT22;17110;52.602;12.998;2023-04-24T07:38:04;27.40;92.00
30300;DHT22;17110;52.602;12.998;2023-04-24T07:40:30;28.30;90.60
30300;DHT22;17110;52.602;12.998;2023-04-24T07:42:55;28.30;90.90
30300;DHT22;17110;52.602;12.998;2023-04-24T07:45:21;27.90;90.80
30300;DHT22;17110;52.602;12.998;2023-04-24T07:47:48;28.20;89.40
30300;DHT22;17110;52.602;12.998;2023-04-24T07:50:15;27.60;91.00
30300;DHT22;17110;52.602;12.998;2023-04-24T07:52:41;27.10;90.30
30300;DHT22;17110;52.602;12.998;2023-04-24T07:55:07;26.30;90.70
30300;DHT22;17110;52.602;12.998;2023-04-24T07:57:33;25.20;91.60
30300;DHT22;17110;52.602;12.998;2023-04-24T07:59:59;24.00;93.30
30300;DHT22;17110;52.602;12.998;2023-04-24T08:02:24;22.30;95.90
30300;DHT22;17110;52.602;12.998;2023-04-24T08:04:54;21.70;97.10
30300;DHT22;17110;52.602;12.998;2023-04-24T08:07:20;22.10;97.00
30300;DHT22;17110;52.602;12.998;2023-04-24T08:09:46;23.00;96.10
30300;DHT22;17110;52.602;12.998;2023-04-24T08:12:11;25.30;92.70
30300;DHT22;17110;52.602;12.998;2023-04-24T08:14:37;24.80;93.10
30300;DHT22;17110;52.602;12.998;2023-04-24T08:17:02;23.20;94.20
30300;DHT22;17110;52.602;12.998;2023-04-24T08:19:28;21.50;96.00
30300;DHT22;17110;52.602;12.998;2023-04-24T08:21:54;20.10;99.00
30300;DHT22;17110;52.602;12.998;2023-04-24T08:24:20;20.80;98.90
30300;DHT22;17110;52.602;12.998;2023-04-24T08:26:46;22.70;96.40
30300;DHT22;17110;52.602;12.998;2023-04-24T08:29:11;23.20;95.00
30300;DHT22;17110;52.602;12.998;2023-04-24T08:31:37;22.70;96.40
30300;DHT22;17110;52.602;12.998;2023-04-24T08:34:02;21.80;96.80
30300;DHT22;17110;52.602;12.998;2023-04-24T08:36:28;20.40;97.10
30300;DHT22;17110;52.602;12.998;2023-04-24T08:38:53;19.80;99.00
30300;DHT22;17110;52.602;12.998;2023-04-24T08:41:19;19.40;99.90
30300;DHT22;17110;52.602;12.998;2023-04-24T08:43:48;18.90;99.90
30300;DHT22;17110;52.602;12.998;2023-04-24T08:46:15;18.60;99.90
30300;DHT22;17110;52.602;12.998;2023-04-24T08:48:42;18.60;99.90
30300;DHT22;17110;52.602;12.998;2023-04-24T08:51:08;18.40;99.90
30300;DHT22;17110;52.602;12.998;2023-04-24T08:53:35;18.30;99.90
30300;DHT22;17110;52.602;12.998;2023-04-24T08:56:01;18.20;99.90
30300;DHT22;17110;52.602;12.998;2023-04-24T08:58:28;18.50;99.90
30300;DHT22;17110;52.602;12.998;2023-04-24T09:00:57;18.40;99.90
30300;DHT22;17110;52.602;12.998;2023-04-24T09:03:23;18.60;99.90
30300;DHT22;17110;52.602;12.998;2023-04-24T09:05:51;18.70;99.90
30300;DHT22;17110;52.602;12.998;2023-04-24T09:08:18;18.90;99.90
30300;DHT22;17110;52.602;12.998;2023-04-24T09:10:44;18.70;99.90
30300;DHT22;17110;52.602;12.998;2023-04-24T09:13:10;18.30;99.90
30300;DHT22;17110;52.602;12.998;2023-04-24T09:15:37;18.30;99.90
30300;DHT22;17110;52.602;12.998;2023-04-24T09:18:04;18.00;99.90
30300;DHT22;17110;52.602;12.998;2023-04-24T09:20:30;17.70;99.90
30300;DHT22;17110;52.602;12.998;2023-04-24T09:22:57;17.80;99.90
30300;DHT22;17110;52.602;12.998;2023-04-24T09:25:33;18.20;99.90
30300;DHT22;17110;52.602;12.998;2023-04-24T09:28:04;19.40;99.90
30300;DHT22;17110;52.602;12.998;2023-04-24T09:30:30;19.90;99.90
30300;DHT22;17110;52.602;12.998;2023-04-24T09:33:15;19.90;99.90
30300;DHT22;17110;52.602;12.998;2023-04-24T09:35:42;19.90;99.90
30300;DHT22;17110;52.602;12.998;2023-04-24T09:38:10;19.80;99.90
30300;DHT22;17110;52.602;12.998;2023-04-24T09:40:36;20.40;99.90
30300;DHT22;17110;52.602;12.998;2023-04-24T09:43:02;21.30;99.90
30300;DHT22;17110;52.602;12.998;2023-04-24T09:45:34;22.00;99.90
30300;DHT22;17110;52.602;12.998;2023-04-24T09:48:01;22.00;97.90
30300;DHT22;17110;52.602;12.998;2023-04-24T09:50:26;20.50;99.80
30300;DHT22;17110;52.602;12.998;2023-04-24T09:53:01;19.10;99.90
30300;DHT22;17110;52.602;12.998;2023-04-24T09:55:27;18.30;99.90
30300;DHT22;17110;52.602;12.998;2023-04-24T09:57:55;17.90;99.90
30300;DHT22;17110;52.602;12.998;2023-04-24T10:00:28;17.90;99.90
30300;DHT22;17110;52.602;12.998;2023-04-24T10:02:59;18.30;99.90
30300;DHT22;17110;52.602;12.998;2023-04-24T10:05:30;18.60;99.90
30300;DHT22;17110;52.602;12.998;2023-04-24T10:08:03;18.40;99.90
30300;DHT22;17110;52.602;12.998;2023-04-24T10:10:31;17.80;99.90
30300;DHT22;17110;52.602;12.998;2023-04-24T10:12:57;17.60;99.90
30300;DHT22;17110;52.602;12.998;2023-04-24T10:15:22;17.40;99.90
30300;DHT22;17110;52.602;12.998;2023-04-24T10:17:50;17.50;99.90
30300;DHT22;17110;52.602;12.998;2023-04-24T10:20:22;17.60;99.90
30300;DHT22;17110;52.602;12.998;2023-04-24T10:22:50;17.70;99.90
30300;DHT22;17110;52.602;12.998;2023-04-24T10:25:18;17.60;99.90
30300;DHT22;17110;52.602;12.998;2023-04-24T10:27:45;17.90;99.90
30300;DHT22;17110;52.602;12.998;2023-04-24T10:30:12;18.40;99.90
30300;DHT22;17110;52.602;12.998;2023-04-24T10:32:41;18.50;99.90
30300;DHT22;17110;52.602;12.998;2023-04-24T10:35:07;18.40;99.90
30300;DHT22;17110;52.602;12.998;2023-04-24T10:37:39;18.70;99.90
30300;DHT22;17110;52.602;12.998;2023-04-24T10:40:07;18.70;99.90
30300;DHT22;17110;52.602;12.998;2023-04-24T10:42:34;18.80;99.90
30300;DHT22;17110;52.602;12.998;2023-04-24T10:45:04;18.70;99.90
30300;DHT22;17110;52.602;12.998;2023-04-24T10:47:30;18.20;99.90
30300;DHT22;17110;52.602;12.998;2023-04-24T10:50:10;17.90;99.90
30300;DHT22;17110;52.602;12.998;2023-04-24T10:52:49;18.40;99.90
30300;DHT22;17110;52.602;12.998;2023-04-24T10:55:29;18.50;99.90
30300;DHT22;17110;52.602;12.998;2023-04-24T10:58:03;18.30;99.90
30300;DHT22;17110;52.602;12.998;2023-04-24T11:00:29;17.90;99.90
30300;DHT22;17110;52.602;12.998;2023-04-24T11:02:56;18.00;99.90
30300;DHT22;17110;52.602;12.998;2023-04-24T11:05:23;18.30;99.90
30300;DHT22;17110;52.602;12.998;2023-04-24T11:08:16;18.80;99.90
30300;DHT22;17110;52.602;12.998;2023-04-24T11:10:54;18.70;99.90
30300;DHT22;17110;52.602;12.998;2023-04-24T11:14:06;18.70;99.90
30300;DHT22;17110;52.602;12.998;2023-04-24T11:19:07;19.50;99.90
30300;DHT22;17110;52.602;12.998;2023-04-24T11:27:06;15.90;99.90
30300;DHT22;17110;52.602;12.998;2023-04-24T11:29:51;15.50;99.90
30300;DHT22;17110;52.602;12.998;2023-04-24T11:35:03;15.30;99.90
30300;DHT22;17110;52.602;12.998;2023-04-24T11:37:38;16.00;99.90
30300;DHT22;17110;52.602;12.998;2023-04-24T11:40:10;17.00;99.90
30300;DHT22;17110;52.602;12.998;2023-04-24T11:42:43;17.30;99.90
30300;DHT22;17110;52.602;12.998;2023-04-24T11:45:10;17.40;99.90
30300;DHT22;17110;52.602;12.998;2023-04-24T11:47:36;17.60;99.90
30300;DHT22;17110;52.602;12.998;2023-04-24T11:50:04;17.90;99.90
30300;DHT22;17110;52.602;12.998;2023-04-24T11:52:31;17.80;99.90
30300;DHT22;17110;52.602;12.998;2023-04-24T11:54:57;18.00;99.90
30300;DHT22;17110;52.602;12.998;2023-04-24T11:57:24;18.10;99.90
30300;DHT22;17110;52.602;12.998;2023-04-24T11:59:53;17.80;99.90
30300;DHT22;17110;52.602;12.998;2023-04-24T12:02:23;17.50;99.90
30300;DHT22;17110;52.602;12.998;2023-04-24T12:04:49;17.30;99.90
30300;DHT22;17110;52.602;12.998;2023-04-24T12:07:15;17.30;99.90
30300;DHT22;17110;52.602;12.998;2023-04-24T12:09:58;18.00;99.90
30300;DHT22;17110;52.602;12.998;2023-04-24T12:12:28;18.40;99.90
30300;DHT22;17110;52.602;12.998;2023-04-24T12:14:57;18.20;99.90
30300;DHT22;17110;52.602;12.998;2023-04-24T12:17:28;18.00;99.90
30300;DHT22;17110;52.602;12.998;2023-04-24T12:20:00;17.50;99.90
30300;DHT22;17110;52.602;12.998;2023-04-24T12:22:27;17.10;99.90
30300;DHT22;17110;52.602;12.998;2023-04-24T12:25:03;17.10;99.90
30300;DHT22;17110;52.602;12.998;2023-04-24T12:27:33;17.00;99.90
30300;DHT22;17110;52.602;12.998;2023-04-24T12:30:02;16.90;99.90
30300;DHT22;17110;52.602;12.998;2023-04-24T12:32:28;17.00;99.90
30300;DHT22;17110;52.602;12.998;2023-04-24T12:34:58;17.30;99.90
30300;DHT22;17110;52.602;12.998;2023-04-24T12:37:25;17.50;99.90
30300;DHT22;17110;52.602;12.998;2023-04-24T12:40:05;18.30;99.90
30300;DHT22;17110;52.602;12.998;2023-04-24T12:42:32;18.90;99.90
30300;DHT22;17110;52.602;12.998;2023-04-24T12:45:06;19.10;99.90
30300;DHT22;17110;52.602;12.998;2023-04-24T12:47:32;19.00;99.90
30300;DHT22;17110;52.602;12.998;2023-04-24T12:49:59;18.60;99.90
30300;DHT22;17110;52.602;12.998;2023-04-24T12:52:25;18.30;99.90
30300;DHT22;17110;52.602;12.998;2023-04-24T12:54:59;18.10;99.90
30300;DHT22;17110;52.602;12.998;2023-04-24T12:57:26;18.30;99.90
30300;DHT22;17110;52.602;12.998;2023-04-24T12:59:55;18.70;99.90
30300;DHT22;17110;52.602;12.998;2023-04-24T13:02:22;19.20;99.90
30300;DHT22;17110;52.602;12.998;2023-04-24T13:04:49;19.50;99.90
30300;DHT22;17110;52.602;12.998;2023-04-24T13:07:15;19.80;99.90
30300;DHT22;17110;52.602;12.998;2023-04-24T13:09:42;19.80;99.90
30300;DHT22;17110;52.602;12.998;2023-04-24T13:12:08;19.50;99.90
30300;DHT22;17110;52.602;12.998;2023-04-24T13:14:35;19.40;99.90
30300;DHT22;17110;52.602;12.998;2023-04-24T13:17:00;19.40;99.90
30300;DHT22;17110;52.602;12.998;2023-04-24T13:19:26;19.40;99.90
30300;DHT22;17110;52.602;12.998;2023-04-24T13:21:54;19.20;99.90
30300;DHT22;17110;52.602;12.998;2023-04-24T13:24:21;18.90;99.90
30300;DHT22;17110;52.602;12.998;2023-04-24T13:26:50;18.50;99.90
30300;DHT22;17110;52.602;12.998;2023-04-24T13:29:17;18.50;99.90
30300;DHT22;17110;52.602;12.998;2023-04-24T13:31:45;18.50;99.90
30300;DHT22;17110;52.602;12.998;2023-04-24T13:34:11;18.00;99.90
30300;DHT22;17110;52.602;12.998;2023-04-24T13:36:36;17.70;99.90
30300;DHT22;17110;52.602;12.998;2023-04-24T13:39:02;17.80;99.90
30300;DHT22;17110;52.602;12.998;2023-04-24T13:41:30;18.30;99.90
30300;DHT22;17110;52.602;12.998;2023-04-24T13:43:56;19.00;99.90
30300;DHT22;17110;52.602;12.998;2023-04-24T13:46:22;19.50;99.90
30300;DHT22;17110;52.602;12.998;2023-04-24T13:48:59;19.70;99.90
30300;DHT22;17110;52.602;12.998;2023-04-24T13:51:28;19.60;98.50
30300;DHT22;17110;52.602;12.998;2023-04-24T13:53:54;19.40;99.20
30300;DHT22;17110;52.602;12.998;2023-04-24T13:56:20;18.90;99.70
30300;DHT22;17110;52.602;12.998;2023-04-24T13:58:46;18.70;99.90
30300;DHT22;17110;52.602;12.998;2023-04-24T14:01:12;18.80;99.10
30300;DHT22;17110;52.602;12.998;2023-04-24T14:03:41;19.00;99.50
30300;DHT22;17110;52.602;12.998;2023-04-24T14:06:08;19.10;99.50
30300;DHT22;17110;52.602;12.998;2023-04-24T14:08:36;19.20;99.20
30300;DHT22;17110;52.602;12.998;2023-04-24T14:11:16;19.40;98.50
30300;DHT22;17110;52.602;12.998;2023-04-24T14:16:59;19.30;97.20
30300;DHT22;17110;52.602;12.998;2023-04-24T14:19:40;19.10;97.90
30300;DHT22;17110;52.602;12.998;2023-04-24T14:22:05;18.80;97.80
30300;DHT22;17110;52.602;12.998;2023-04-24T14:24:31;18.80;97.80
30300;DHT22;17110;52.602;12.998;2023-04-24T14:26:59;18.90;95.70
30300;DHT22;17110;52.602;12.998;2023-04-24T14:29:25;18.30;96.20
30300;DHT22;17110;52.602;12.998;2023-04-24T14:31:51;18.00;96.70
30300;DHT22;17110;52.602;12.998;2023-04-24T14:34:16;17.60;96.50
30300;DHT22;17110;52.602;12.998;2023-04-24T14:36:42;17.40;98.70
30300;DHT22;17110;52.602;12.998;2023-04-24T14:39:08;17.80;99.10
30300;DHT22;17110;52.602;12.998;2023-04-24T14:41:33;18.30;99.00
30300;DHT22;17110;52.602;12.998;2023-04-24T14:44:04;18.30;97.90
30300;DHT22;17110;52.602;12.998;2023-04-24T14:46:30;18.00;97.20
30300;DHT22;17110;52.602;12.998;2023-04-24T14:48:57;17.60;97.10
30300;DHT22;17110;52.602;12.998;2023-04-24T14:51:23;17.60;97.00
30300;DHT22;17110;52.602;12.998;2023-04-24T14:53:49;17.60;97.70
30300;DHT22;17110;52.602;12.998;2023-04-24T14:56:14;17.50;96.70
30300;DHT22;17110;52.602;12.998;2023-04-24T14:58:40;17.20;97.10
30300;DHT22;17110;52.602;12.998;2023-04-24T15:01:06;17.10;97.50
30300;DHT22;17110;52.602;12.998;2023-04-24T15:03:31;17.10;97.60
30300;DHT22;17110;52.602;12.998;2023-04-24T15:05:57;16.90;97.70
30300;DHT22;17110;52.602;12.998;2023-04-24T15:08:22;16.90;98.40
30300;DHT22;17110;52.602;12.998;2023-04-24T15:10:49;16.90;98.80
30300;DHT22;17110;52.602;12.998;2023-04-24T15:13:18;16.80;97.80
30300;DHT22;17110;52.602;12.998;2023-04-24T15:15:43;16.70;98.60
30300;DHT22;17110;52.602;12.998;2023-04-24T15:18:11;16.80;98.40
30300;DHT22;17110;52.602;12.998;2023-04-24T15:20:37;16.90;98.90
30300;DHT22;17110;52.602;12.998;2023-04-24T15:23:05;16.90;98.40
30300;DHT22;17110;52.602;12.998;2023-04-24T15:25:30;17.00;98.20
30300;DHT22;17110;52.602;12.998;2023-04-24T15:27:57;16.90;97.80
30300;DHT22;17110;52.602;12.998;2023-04-24T15:30:24;17.00;97.30
30300;DHT22;17110;52.602;12.998;2023-04-24T15:32:50;17.00;98.20
30300;DHT22;17110;52.602;12.998;2023-04-24T15:37:51;17.60;98.50
30300;DHT22;17110;52.602;12.998;2023-04-24T15:40:16;17.60;96.60
30300;DHT22;17110;52.602;12.998;2023-04-24T15:42:42;17.40;97.50
30300;DHT22;17110;52.602;12.998;2023-04-24T15:45:09;17.40;98.00
30300;DHT22;17110;52.602;12.998;2023-04-24T15:47:35;17.40;98.10
30300;DHT22;17110;52.602;12.998;2023-04-24T15:50:02;17.20;97.10
30300;DHT22;17110;52.602;12.998;2023-04-24T15:52:27;17.00;97.80
30300;DHT22;17110;52.602;12.998;2023-04-24T15:54:53;16.80;98.70
30300;DHT22;17110;52.602;12.998;2023-04-24T15:57:20;16.70;98.10
30300;DHT22;17110;52.602;12.998;2023-04-24T15:59:46;16.90;98.20
30300;DHT22;17110;52.602;12.998;2023-04-24T16:02:13;16.80;99.00
30300;DHT22;17110;52.602;12.998;2023-04-24T16:04:47;16.60;98.20
30300;DHT22;17110;52.602;12.998;2023-04-24T16:07:13;16.50;99.30
30300;DHT22;17110;52.602;12.998;2023-04-24T16:09:40;16.10;99.90
30300;DHT22;17110;52.602;12.998;2023-04-24T16:12:06;15.50;99.90
30300;DHT22;17110;52.602;12.998;2023-04-24T16:14:32;15.40;99.90
30300;DHT22;17110;52.602;12.998;2023-04-24T16:16:57;15.10;99.90
30300;DHT22;17110;52.602;12.998;2023-04-24T16:19:23;15.00;99.90